createdAt,value
2018-02-14T00:00:34.758Z,13.67
2018-02-14T00:05:42.329Z,11.73
2018-02-14T00:15:59.105Z,15.20
2018-02-14T00:21:05.279Z,17.63
2018-02-14T00:26:13.276Z,18.30
2018-02-14T00:31:20.644Z,14.07
2018-02-14T00:36:28.170Z,17.10
2018-02-14T00:41:31.464Z,11.10
2018-02-14T00:46:36.345Z,15.27
2018-02-14T00:51:41.870Z,14.33
2018-02-14T00:56:56.983Z,9.60
2018-02-14T01:02:08.269Z,19.07
2018-02-14T01:07:19.684Z,17.13
2018-02-14T01:12:27.074Z,20.13
2018-02-14T01:17:39.046Z,17.33
2018-02-14T01:28:01.133Z,20.63
2018-02-14T01:33:07.993Z,12.40
2018-02-14T01:38:16.847Z,10.93
2018-02-14T01:43:41.783Z,10.13
2018-02-14T01:48:48.092Z,11.60
2018-02-14T01:53:54.600Z,11.73
2018-02-14T01:59:02.377Z,14.40
2018-02-14T02:04:24.229Z,11.00
2018-02-14T02:09:32.878Z,9.30
2018-02-14T02:14:44.788Z,12.80
2018-02-14T02:20:03.289Z,7.00
2018-02-14T02:25:16.142Z,11.03
2018-02-14T02:30:25.214Z,12.80
2018-02-14T02:35:36.200Z,24.63
2018-02-14T02:40:45.766Z,14.97
2018-02-14T02:45:53.403Z,9.77
2018-02-14T02:51:01.506Z,13.00
2018-02-14T02:56:07.720Z,10.93
2018-02-14T03:06:34.313Z,7.80
2018-02-14T03:16:57.412Z,9.53
2018-02-14T03:27:19.939Z,8.70
2018-02-14T03:32:31.949Z,11.97
2018-02-14T03:37:42.778Z,8.87
2018-02-14T03:42:51.458Z,10.57
2018-02-14T03:48:00.648Z,9.23
2018-02-14T03:53:06.440Z,16.50
2018-02-14T03:58:28.057Z,15.53
2018-02-14T04:03:33.209Z,10.33
2018-02-14T04:13:51.965Z,17.40
2018-02-14T04:19:04.219Z,12.13
2018-02-14T04:24:17.524Z,12.70
2018-02-14T04:29:24.741Z,13.37
2018-02-14T04:34:33.847Z,14.47
2018-02-14T04:39:46.259Z,15.53
2018-02-14T04:44:51.481Z,13.10
2018-02-14T04:50:03.368Z,12.70
2018-02-14T04:55:13.444Z,12.00
2018-02-14T05:00:23.338Z,13.70
2018-02-14T05:05:30.991Z,12.07
2018-02-14T05:10:40.352Z,12.83
2018-02-14T05:15:46.594Z,11.10
2018-02-14T05:20:54.009Z,14.90
2018-02-14T05:31:11.680Z,16.10
2018-02-14T05:36:17.886Z,14.77
2018-02-14T05:41:23.758Z,14.77
2018-02-14T05:46:32.670Z,13.40
2018-02-14T05:51:40.320Z,13.20
2018-02-14T05:56:50.929Z,9.83
2018-02-14T06:01:56.382Z,12.77
2018-02-14T06:07:01.099Z,13.57
2018-02-14T06:12:06.383Z,28.27
2018-02-14T06:17:15.229Z,11.60
2018-02-14T06:22:22.945Z,14.50
2018-02-14T06:27:29.267Z,13.43
2018-02-14T06:32:49.168Z,11.90
2018-02-14T06:37:54.013Z,19.03
2018-02-14T06:43:12.749Z,13.47
2018-02-14T06:48:27.782Z,15.50
2018-02-14T06:53:51.958Z,22.80
2018-02-14T07:04:11.053Z,14.17
2018-02-14T07:09:25.749Z,12.90
2018-02-14T07:14:32.520Z,14.80
2018-02-14T07:19:51.520Z,17.40
2018-02-14T07:24:59.819Z,24.67
2018-02-14T07:30:15.552Z,19.77
2018-02-14T07:35:26.071Z,18.43
2018-02-14T07:45:48.351Z,16.20
2018-02-14T07:50:50.915Z,18.53
2018-02-14T07:55:53.500Z,14.90
2018-02-14T08:00:56.042Z,29.87
2018-02-14T08:05:58.597Z,27.30
2018-02-14T08:11:02.802Z,20.97
2018-02-14T08:16:09.774Z,22.50
2018-02-14T08:21:14.724Z,26.30
2018-02-14T08:26:21.738Z,23.47
2018-02-14T08:31:37.328Z,23.93
2018-02-14T08:36:43.984Z,28.80
2018-02-14T08:41:53.572Z,33.97
2018-02-14T08:47:02.792Z,19.97
2018-02-14T08:52:05.447Z,35.47
2018-02-14T08:57:13.696Z,28.10
2018-02-14T09:02:27.397Z,29.07
2018-02-14T09:07:38.216Z,36.07
2018-02-14T09:12:41.569Z,26.53
2018-02-14T09:23:10.240Z,25.93
2018-02-14T09:28:19.002Z,29.10
2018-02-14T09:33:30.513Z,28.97
2018-02-14T09:38:36.941Z,24.93
2018-02-14T09:43:41.090Z,25.40
2018-02-14T09:48:46.161Z,21.33
2018-02-14T09:59:18.286Z,19.63
2018-02-14T10:04:27.417Z,32.93
2018-02-14T10:09:49.695Z,24.83
2018-02-14T10:15:04.105Z,25.73
2018-02-14T10:20:15.579Z,22.27
2018-02-14T10:25:31.311Z,35.20
2018-02-14T10:30:42.829Z,15.20
2018-02-14T10:35:51.880Z,20.00
2018-02-14T10:40:55.927Z,18.53
2018-02-14T10:46:11.182Z,16.00
2018-02-14T10:57:07.693Z,20.30
2018-02-14T11:02:15.843Z,17.37
2018-02-14T11:07:39.270Z,11.87
2018-02-14T11:18:56.651Z,20.60
2018-02-14T11:24:06.747Z,12.50
2018-02-14T11:29:21.580Z,19.13
2018-02-14T11:34:28.324Z,15.60
2018-02-14T11:40:00.185Z,9.37
2018-02-14T11:45:13.665Z,9.90
2018-02-14T11:55:52.240Z,8.70
2018-02-14T12:00:59.823Z,10.27
2018-02-14T12:11:20.435Z,13.50
2018-02-14T12:16:32.321Z,5.23
2018-02-14T12:21:47.273Z,8.03
2018-02-14T12:27:00.065Z,8.73
2018-02-14T12:32:06.780Z,7.43
2018-02-14T12:37:22.677Z,10.87
2018-02-14T12:48:28.332Z,9.97
2018-02-14T12:53:47.176Z,8.20
2018-02-14T12:58:56.642Z,9.63
2018-02-14T13:04:14.562Z,7.53
2018-02-14T13:15:48.020Z,9.70
2018-02-14T13:29:18.771Z,10.87
2018-02-14T13:40:03.088Z,7.43
2018-02-14T14:24:03.519Z,13.97
2018-02-14T14:40:24.396Z,12.20
2018-02-14T14:45:39.841Z,9.90
2018-02-14T14:50:50.191Z,12.13
2018-02-14T14:56:02.365Z,14.30
2018-02-14T15:01:29.759Z,14.90
2018-02-14T15:06:40.873Z,21.50
2018-02-14T15:11:56.841Z,14.27
2018-02-14T15:22:32.163Z,10.90
2018-02-14T15:33:36.504Z,13.70
2018-02-14T15:38:43.835Z,17.03
2018-02-14T15:50:10.550Z,13.80
2018-02-14T15:55:21.975Z,11.20
2018-02-14T16:20:55.210Z,20.43
2018-02-14T16:26:12.625Z,22.33
2018-02-14T17:03:48.675Z,20.43
2018-02-14T17:28:28.864Z,19.80
2018-02-14T17:39:11.918Z,16.57
2018-02-14T17:44:24.183Z,18.43
2018-02-14T17:55:22.533Z,19.37
2018-02-14T18:00:38.564Z,23.27
2018-02-14T18:05:43.231Z,27.67
2018-02-14T18:17:19.508Z,41.93
2018-02-14T18:22:30.008Z,25.63
2018-02-14T18:33:03.937Z,28.50
2018-02-14T18:38:12.252Z,32.53
2018-02-14T18:43:15.456Z,29.07
2018-02-14T18:48:40.897Z,29.13
2018-02-14T18:54:00.214Z,21.80
2018-02-14T18:59:13.685Z,22.37
2018-02-14T19:04:19.222Z,33.00
2018-02-14T19:15:16.697Z,19.50
2018-02-14T19:20:22.101Z,20.70
2018-02-14T19:25:31.156Z,18.93
2018-02-14T19:30:39.149Z,17.20
2018-02-14T19:41:43.296Z,20.70
2018-02-14T19:46:53.906Z,22.93
2018-02-14T19:52:02.108Z,26.23
2018-02-14T19:57:07.065Z,37.77
2018-02-14T20:02:09.969Z,31.60
2018-02-14T20:07:14.230Z,40.07
2018-02-14T20:12:20.008Z,30.27
2018-02-14T20:17:25.267Z,30.00
2018-02-14T20:22:35.001Z,25.67
2018-02-14T20:27:38.878Z,25.47
2018-02-14T20:32:43.029Z,32.03
2018-02-14T20:37:46.096Z,25.97
2018-02-14T20:42:50.265Z,40.70
2018-02-14T20:47:54.169Z,32.13
2018-02-14T20:52:57.123Z,29.00
2018-02-14T20:58:01.069Z,27.67
2018-02-14T21:03:07.007Z,39.33
2018-02-14T21:08:12.110Z,39.47
2018-02-14T21:13:17.684Z,35.90
2018-02-14T21:18:21.989Z,35.23
2018-02-14T21:23:26.087Z,31.70
2018-02-14T21:28:29.088Z,33.60
2018-02-14T21:33:34.622Z,33.33
2018-02-14T21:38:38.101Z,28.20
2018-02-14T21:43:42.514Z,28.70
2018-02-14T21:48:46.759Z,26.77
2018-02-14T21:53:50.754Z,31.13
2018-02-14T21:58:56.266Z,28.33
2018-02-14T22:03:59.782Z,37.40
2018-02-14T22:09:05.642Z,29.67
2018-02-14T22:14:10.489Z,28.27
2018-02-14T22:19:13.636Z,44.53
2018-02-14T22:24:17.805Z,40.43
2018-02-14T22:29:20.980Z,45.77
2018-02-14T22:34:26.977Z,37.17
2018-02-14T22:39:30.915Z,42.07
2018-02-14T22:44:36.741Z,29.17
2018-02-14T22:49:40.636Z,34.87
2018-02-14T22:54:45.373Z,30.67
2018-02-14T22:59:48.872Z,32.87
2018-02-14T23:04:53.569Z,27.97
2018-02-14T23:09:58.846Z,32.77
2018-02-14T23:15:03.624Z,39.83
2018-02-14T23:20:06.668Z,35.20
2018-02-14T23:25:12.330Z,31.40
2018-02-14T23:30:16.978Z,32.33
2018-02-14T23:35:20.235Z,39.40
2018-02-14T23:40:26.655Z,37.87
2018-02-14T23:45:31.335Z,32.90
2018-02-14T23:50:36.506Z,26.43
2018-02-14T23:55:41.193Z,32.40
